Alplaus, NY

8:16 PM EDT on March 31, 2015 (GMT -0400)
Daily Gazette | | Change Station
CLOSE
Current Station
Personal Weather Station
Location: Schenectady, NY
Elevation: 295 ft
Nearby Weather Stations

Elev 295 ft 42.83 °N, 73.92 °W | Updated 2 seconds ago

Mostly Cloudy
Mostly Cloudy
37.0 °F
Feels Like 37 °F
N
0.0
Wind Variable Wind from WNW
Gusts 8.9 mph

Today
High -- | Low -- °F
--% Chance of Precip.
Yesterday
High -- | Low -- °F
Precip. -- in
6:39 AM 7:20 PM
Waxing Gibbous, 89% visible
Pressure 29.78 in
Visibility 10.0 miles
Clouds Scattered Clouds 15000 ft
Scattered Clouds 18000 ft
Mostly Cloudy 25000 ft
Windchill 37 °F
Dew Point 22 °F
Humidity 54%
Rainfall 0.03 in
Snow Depth Not available.
UV 0 out of 12
Pollen 4.90 out of 12
Air Quality Not available.
Flu Activity Not available.
METAR KALB 312351Z 30006KT 10SM SCT150 SCT180 BKN250 03/M08 A2977 RMK AO2 SLP084 T00331078 10078 20033 53012

More Conditions Fewer Conditions

Pressure 29.78 in
Visibility 10.0 miles
Clouds Scattered Clouds 15000 ft
Scattered Clouds 18000 ft
Mostly Cloudy 25000 ft
Windchill 37 °F
Dew Point 22 °F
Humidity 54%
Rainfall 0.03 in
Snow Depth Not available.
UV 0 out of 12
Pollen 4.90 out of 12
Air Quality Not available.
Flu Activity Not available.
METAR KALB 312351Z 30006KT 10SM SCT150 SCT180 BKN250 03/M08 A2977 RMK AO2 SLP084 T00331078 10078 20033 53012

More Conditions Fewer Conditions

10-Day Weather Forecast

Almanac

Astronomy

Mar. 31, 2015 Rise Set
Actual Time
Civil Twilight
Nautical Twilight
Astronomical Twilight
Moon
Length of Visible Light
Length of Day
Tomorrow will be .
, % of the Moon is Illuminated

Today's Extremes

State Highs State Lows

Community

WunderPhotos

Upload Photos

1,809,883 photos uploaded!

WunderBlogs® & News

Nearby

Air Quality

  Air Quality AQ Index Pollutant
Not available.

Snow Depth

Station Depth Elevation

Earthquake Activity

City Distance Mag. Time & Date
Minimum magnitude displayed is 2.5.

Coastal Water Temperatures

Place Temperature

Stations

Nearby Weather Stations

Station Location Temp. Windchill Dew Point Humidity Wind Precip. Elev Updated Type